Time;durP1;ratioP1;P1;durP2;ratioP2;P2;SDS_P1;SDS_P2;PMS_P1;PMS_P2;Temp;Humidity;BMP_temperature;BMP_pressure;BME280_temperature;BME280_humidity;BME280_pressure;Samples;Min_cycle;Max_cycle;Signal;HPM_P1;HPM_P2
2020/12/25 00:00:25;;;;;;;0.30;0.30;;;2.40;99.90;;;;;;4943009;28;20195;-91
2020/12/25 00:02:51;;;;;;;0.40;0.40;;;2.30;99.90;;;;;;4940958;28;20229;-91
2020/12/25 00:05:17;;;;;;;0.40;0.40;;;2.40;99.90;;;;;;4940142;28;20459;-90
2020/12/25 00:07:43;;;;;;;0.60;0.60;;;2.40;99.90;;;;;;4938877;28;20457;-92
2020/12/25 00:10:08;;;;;;;0.30;0.30;;;2.30;99.90;;;;;;4941621;28;21010;-90
2020/12/25 00:12:34;;;;;;;0.50;0.50;;;2.40;99.90;;;;;;4941832;28;20194;-91
2020/12/25 00:15:00;;;;;;;0.30;0.30;;;2.40;99.90;;;;;;4939753;28;20319;-93
2020/12/25 00:17:25;;;;;;;2.00;1.10;;;2.40;99.90;;;;;;4945471;28;20207;-92
2020/12/25 00:19:51;;;;;;;0.67;0.67;;;2.40;99.90;;;;;;4941731;28;20203;-92
2020/12/25 00:22:16;;;;;;;0.40;0.40;;;2.40;99.90;;;;;;4943664;28;20215;-92
2020/12/25 00:24:42;;;;;;;0.60;0.43;;;2.40;99.90;;;;;;4956232;28;20669;-93
2020/12/25 00:27:08;;;;;;;0.53;0.50;;;2.40;99.90;;;;;;4944700;28;20213;-93
2020/12/25 00:29:33;;;;;;;0.50;0.50;;;2.40;99.90;;;;;;4940526;28;20194;-93
2020/12/25 00:31:59;;;;;;;0.60;0.60;;;2.40;99.90;;;;;;4942705;28;20191;-91
2020/12/25 00:34:24;;;;;;;0.40;0.40;;;2.40;99.90;;;;;;4942825;28;20201;-90
2020/12/25 00:36:52;;;;;;;0.47;0.47;;;2.40;99.90;;;;;;4938182;28;20197;-89
2020/12/25 00:39:18;;;;;;;0.67;0.67;;;2.50;99.90;;;;;;4944815;28;20198;-87
2020/12/25 00:41:48;;;;;;;0.60;0.60;;;2.50;99.90;;;;;;4937543;28;20998;-87
2020/12/25 00:44:13;;;;;;;0.83;0.83;;;2.50;99.90;;;;;;4956103;28;20458;-88
2020/12/25 00:46:40;;;;;;;0.60;0.60;;;2.50;99.90;;;;;;4936102;28;20472;-88
2020/12/25 00:49:07;;;;;;;0.70;0.70;;;2.40;99.90;;;;;;4931424;28;20574;-88
2020/12/25 00:51:33;;;;;;;0.40;0.40;;;2.50;99.90;;;;;;4939136;28;20660;-89
2020/12/25 00:53:59;;;;;;;0.93;0.93;;;2.50;99.90;;;;;;4938403;28;20443;-89
2020/12/25 00:56:24;;;;;;;1.77;1.33;;;2.60;99.90;;;;;;4940450;28;20461;-89
2020/12/25 00:58:50;;;;;;;1.27;1.17;;;2.60;99.90;;;;;;4940010;28;20199;-90
2020/12/25 01:01:16;;;;;;;0.80;0.80;;;2.50;99.90;;;;;;4940553;28;20265;-89
2020/12/25 01:03:44;;;;;;;0.87;0.87;;;2.50;99.90;;;;;;4937551;28;20479;-91
2020/12/25 01:06:17;;;;;;;0.83;0.83;;;2.50;99.90;;;;;;4952415;28;20202;-93
2020/12/25 01:08:45;;;;;;;0.77;0.77;;;2.50;99.90;;;;;;4956952;28;20916;-92
2020/12/25 01:11:11;;;;;;;1.17;1.17;;;2.40;99.90;;;;;;4939097;28;20442;-89
2020/12/25 01:13:38;;;;;;;1.37;1.27;;;2.30;99.90;;;;;;4940585;28;20460;-90
2020/12/25 01:16:09;;;;;;;1.73;1.63;;;2.30;99.90;;;;;;4940957;28;20983;-88
2020/12/25 01:18:36;;;;;;;1.00;1.00;;;2.30;99.90;;;;;;4939860;28;20458;-88
2020/12/25 01:21:03;;;;;;;1.40;1.30;;;2.30;99.90;;;;;;4943200;28;20461;-88
2020/12/25 01:23:29;;;;;;;1.60;1.50;;;2.20;99.90;;;;;;4955989;28;20466;-88
2020/12/25 01:25:54;;;;;;;1.30;1.30;;;2.20;99.90;;;;;;4938961;28;20972;-86
2020/12/25 01:28:20;;;;;;;1.60;1.50;;;2.20;99.90;;;;;;4939166;28;20731;-86
2020/12/25 01:30:46;;;;;;;1.60;1.50;;;2.20;99.90;;;;;;4938715;28;20532;-90
2020/12/25 01:33:12;;;;;;;1.43;1.33;;;2.30;99.90;;;;;;4939807;28;20222;-89
2020/12/25 01:35:37;;;;;;;1.47;1.37;;;2.30;99.90;;;;;;4940754;28;20852;-89
2020/12/25 01:38:04;;;;;;;1.90;1.80;;;2.30;99.90;;;;;;4940133;28;20194;-88
2020/12/25 01:40:29;;;;;;;1.97;1.87;;;2.30;99.90;;;;;;4940006;28;20187;-88
2020/12/25 01:42:55;;;;;;;1.40;1.30;;;2.30;99.90;;;;;;4936935;28;21914;-89
2020/12/25 01:45:21;;;;;;;1.63;1.53;;;2.40;99.90;;;;;;4938758;28;20553;-89
2020/12/25 01:47:48;;;;;;;1.77;1.67;;;2.40;99.90;;;;;;4940612;28;20759;-89
2020/12/25 01:50:14;;;;;;;1.60;1.50;;;2.40;99.90;;;;;;4954420;28;20500;-89
2020/12/25 01:52:41;;;;;;;1.60;1.50;;;2.40;99.90;;;;;;4938500;28;20469;-89
2020/12/25 01:55:08;;;;;;;1.77;1.67;;;2.30;99.90;;;;;;4939132;28;20539;-89
2020/12/25 01:57:34;;;;;;;2.00;1.90;;;2.30;99.90;;;;;;4937640;28;20567;-88
2020/12/25 02:00:00;;;;;;;1.83;1.73;;;2.30;99.90;;;;;;4937861;28;20462;-89
2020/12/25 02:02:28;;;;;;;1.77;1.67;;;2.30;99.90;;;;;;4936063;28;20632;-89
2020/12/25 02:04:54;;;;;;;1.83;1.73;;;2.30;99.90;;;;;;4940051;28;20451;-90
2020/12/25 02:07:20;;;;;;;1.80;1.70;;;2.30;99.90;;;;;;4953546;28;20457;-91
2020/12/25 02:09:46;;;;;;;2.00;1.90;;;2.30;99.90;;;;;;4936604;28;20471;-90
2020/12/25 02:12:11;;;;;;;2.00;1.90;;;2.30;99.90;;;;;;4940234;28;20676;-89
2020/12/25 02:14:38;;;;;;;2.40;2.20;;;2.20;99.90;;;;;;4937273;28;21091;-87
2020/12/25 02:17:03;;;;;;;2.60;2.40;;;2.20;99.90;;;;;;4936732;28;20186;-89
2020/12/25 02:19:29;;;;;;;2.50;2.40;;;2.20;99.90;;;;;;4938653;28;20976;-89
2020/12/25 02:21:54;;;;;;;2.40;2.30;;;2.30;99.90;;;;;;4934751;28;20461;-89
2020/12/25 02:24:22;;;;;;;3.07;2.67;;;2.40;99.90;;;;;;4937486;28;20287;-89
2020/12/25 02:26:48;;;;;;;2.53;2.30;;;2.50;99.90;;;;;;4952399;28;20203;-87
2020/12/25 02:29:14;;;;;;;3.23;2.93;;;2.60;99.90;;;;;;4938532;28;20457;-89
2020/12/25 02:31:39;;;;;;;3.83;3.43;;;2.60;99.90;;;;;;4938996;28;20202;-89
2020/12/25 02:34:05;;;;;;;2.97;2.77;;;2.70;99.90;;;;;;4935688;28;21211;-89
2020/12/25 02:36:31;;;;;;;4.10;3.10;;;2.70;99.90;;;;;;4937952;28;20199;-87
2020/12/25 02:38:57;;;;;;;4.57;3.37;;;2.70;99.90;;;;;;4938239;28;20455;-90
2020/12/25 02:41:22;;;;;;;5.00;4.50;;;2.80;99.90;;;;;;4938183;28;20198;-89
2020/12/25 02:43:49;;;;;;;4.30;3.90;;;2.80;99.90;;;;;;4942220;28;20223;-89
2020/12/25 02:46:19;;;;;;;4.57;3.87;;;2.80;99.90;;;;;;4937323;28;20200;-89
2020/12/25 02:48:44;;;;;;;7.00;3.87;;;2.90;99.90;;;;;;4936297;28;20458;-87
2020/12/25 02:51:10;;;;;;;4.47;4.07;;;2.90;99.90;;;;;;4938960;28;20968;-89
2020/12/25 02:53:35;;;;;;;6.10;4.50;;;2.90;99.90;;;;;;4939534;28;20285;-88
2020/12/25 02:56:01;;;;;;;5.10;4.03;;;2.90;99.90;;;;;;4940372;28;20207;-88
2020/12/25 02:58:27;;;;;;;6.10;4.20;;;2.90;99.90;;;;;;4939309;28;20195;-87
2020/12/25 03:00:52;;;;;;;4.63;4.03;;;2.90;99.90;;;;;;4937937;28;20917;-87
2020/12/25 03:03:18;;;;;;;5.80;4.43;;;2.90;99.90;;;;;;4937966;28;20222;-89
2020/12/25 03:05:43;;;;;;;7.97;4.80;;;2.90;99.90;;;;;;4938132;28;20609;-85
2020/12/25 03:08:09;;;;;;;5.47;4.70;;;2.90;99.90;;;;;;4954448;28;20215;-88
2020/12/25 03:10:35;;;;;;;8.40;4.30;;;2.90;99.90;;;;;;4937882;28;20203;-88
2020/12/25 03:13:00;;;;;;;7.57;4.80;;;2.90;99.90;;;;;;4935803;28;20285;-87
2020/12/25 03:15:26;;;;;;;6.10;5.37;;;3.00;99.90;;;;;;4939859;28;20183;-89
2020/12/25 03:17:52;;;;;;;5.40;4.77;;;3.00;99.90;;;;;;4936928;28;20960;-88
2020/12/25 03:20:17;;;;;;;5.67;4.90;;;3.00;99.90;;;;;;4937300;28;20305;-90
2020/12/25 03:22:43;;;;;;;5.87;5.20;;;3.00;99.90;;;;;;4936710;28;20585;-88
2020/12/25 03:25:09;;;;;;;5.83;4.87;;;3.00;99.90;;;;;;4935018;28;20451;-88
2020/12/25 03:27:34;;;;;;;6.10;4.70;;;3.10;99.90;;;;;;4936638;28;20208;-88
2020/12/25 03:30:00;;;;;;;5.10;4.60;;;3.10;99.90;;;;;;4939459;28;20545;-91
2020/12/25 03:32:25;;;;;;;5.50;4.57;;;3.20;99.90;;;;;;4938065;28;20392;-88
2020/12/25 03:34:51;;;;;;;4.97;4.20;;;3.10;99.90;;;;;;4939873;28;20468;-87
2020/12/25 03:37:18;;;;;;;6.70;5.67;;;3.10;99.90;;;;;;4937762;28;20192;-87
2020/12/25 03:39:46;;;;;;;5.00;4.50;;;3.00;99.90;;;;;;4938919;28;20185;-87
2020/12/25 03:42:12;;;;;;;5.37;4.87;;;3.00;99.90;;;;;;4940195;28;20484;-86
2020/12/25 03:44:37;;;;;;;7.20;5.57;;;3.00;99.90;;;;;;4937742;28;20451;-87
2020/12/25 03:47:06;;;;;;;5.20;4.50;;;3.00;99.90;;;;;;4938074;28;20194;-89
2020/12/25 03:49:31;;;;;;;4.00;3.60;;;3.10;99.90;;;;;;4938934;28;20323;-86
2020/12/25 03:51:57;;;;;;;5.47;4.57;;;3.10;99.90;;;;;;4938766;28;20478;-92
2020/12/25 03:54:22;;;;;;;6.40;4.63;;;3.00;99.90;;;;;;4938261;28;20219;-92
2020/12/25 03:56:48;;;;;;;5.90;4.57;;;3.10;99.90;;;;;;4936854;28;20984;-91
2020/12/25 03:59:14;;;;;;;5.13;4.10;;;3.10;99.90;;;;;;4940440;28;20199;-91
2020/12/25 04:01:39;;;;;;;4.40;4.00;;;3.00;99.90;;;;;;4935316;28;20672;-87
2020/12/25 04:04:05;;;;;;;4.50;4.10;;;3.00;99.90;;;;;;4937156;28;20723;-90
2020/12/25 04:06:30;;;;;;;5.53;4.80;;;3.10;99.90;;;;;;4940632;28;20889;-90
2020/12/25 04:08:56;;;;;;;5.40;4.90;;;3.10;99.90;;;;;;4956696;28;20199;-90
2020/12/25 04:11:22;;;;;;;6.30;5.00;;;3.00;99.90;;;;;;4942239;28;20294;-93
2020/12/25 04:13:47;;;;;;;6.53;4.97;;;3.10;99.90;;;;;;4936084;28;20197;-91
2020/12/25 04:16:13;;;;;;;4.80;4.17;;;3.10;99.90;;;;;;4942057;28;20474;-91
2020/12/25 04:18:39;;;;;;;8.13;5.43;;;3.10;99.90;;;;;;4936260;28;20275;-91
2020/12/25 04:21:05;;;;;;;5.53;4.83;;;3.10;99.90;;;;;;4953105;28;20420;-90
2020/12/25 04:23:30;;;;;;;7.20;4.33;;;3.10;99.90;;;;;;4939184;28;20491;-93
2020/12/25 04:25:56;;;;;;;5.00;4.47;;;3.10;99.90;;;;;;4944230;28;20194;-92
2020/12/25 04:28:22;;;;;;;6.40;5.17;;;3.20;99.90;;;;;;4942389;28;20204;-92
2020/12/25 04:30:48;;;;;;;7.33;5.60;;;3.10;99.90;;;;;;4943212;28;20463;-90
2020/12/25 04:33:16;;;;;;;7.47;5.17;;;3.10;99.90;;;;;;4945779;28;20449;-91
2020/12/25 04:35:41;;;;;;;5.20;4.77;;;3.10;99.90;;;;;;4940872;28;20202;-90
2020/12/25 04:38:07;;;;;;;7.67;5.70;;;3.20;99.90;;;;;;4959105;28;20473;-91
2020/12/25 04:40:34;;;;;;;5.60;4.70;;;3.20;99.90;;;;;;4939642;28;20217;-91
2020/12/25 04:43:01;;;;;;;6.13;4.63;;;3.20;99.90;;;;;;4943431;28;20222;-90
2020/12/25 04:45:27;;;;;;;5.70;4.90;;;3.20;99.90;;;;;;4958653;28;21062;-90
2020/12/25 04:47:53;;;;;;;6.87;5.30;;;3.10;99.90;;;;;;4940560;28;20458;-88
2020/12/25 04:50:18;;;;;;;6.33;5.00;;;3.10;99.90;;;;;;4939852;28;20451;-90
2020/12/25 04:52:53;;;;;;;5.77;4.90;;;3.10;99.90;;;;;;4942382;28;20457;-89
2020/12/25 04:55:19;;;;;;;5.03;4.40;;;3.10;99.90;;;;;;4942387;28;20230;-91
2020/12/25 04:57:44;;;;;;;5.30;4.10;;;3.10;99.90;;;;;;4941849;28;20501;-92
2020/12/25 05:00:21;;;;;;;5.00;4.50;;;3.10;99.90;;;;;;4946182;28;20194;-90
2020/12/25 05:02:50;;;;;;;4.90;4.40;;;3.10;99.90;;;;;;4958076;28;20223;-92
2020/12/25 05:05:28;;;;;;;5.10;4.53;;;3.10;99.90;;;;;;4954957;28;21440;-92
2020/12/25 05:07:55;;;;;;;4.77;4.33;;;3.10;99.90;;;;;;4940360;28;20797;-93
2020/12/25 05:10:21;;;;;;;8.10;4.50;;;3.10;99.90;;;;;;4959037;28;20805;-92
2020/12/25 05:12:47;;;;;;;5.50;4.93;;;3.10;99.90;;;;;;4940697;28;20481;-92
2020/12/25 05:15:14;;;;;;;5.10;4.60;;;3.10;99.90;;;;;;4940457;28;20219;-92
2020/12/25 05:17:41;;;;;;;4.63;4.23;;;3.10;99.90;;;;;;4941634;28;20455;-92
2020/12/25 05:20:07;;;;;;;4.40;4.00;;;3.10;99.90;;;;;;4940264;28;20439;-91
2020/12/25 05:22:33;;;;;;;4.00;3.60;;;3.10;99.90;;;;;;4942490;28;20482;-92
2020/12/25 05:25:08;;;;;;;5.23;4.17;;;3.00;99.90;;;;;;4938077;28;20449;-91
2020/12/25 05:27:34;;;;;;;4.20;3.70;;;3.00;99.90;;;;;;4940893;28;20351;-91
2020/12/25 05:30:01;;;;;;;4.80;4.07;;;3.00;99.90;;;;;;4943427;28;20908;-90
2020/12/25 05:32:29;;;;;;;4.77;3.90;;;3.00;99.90;;;;;;4940648;28;20455;-90
2020/12/25 05:34:56;;;;;;;5.20;4.70;;;3.00;99.90;;;;;;4943225;28;20453;-92
2020/12/25 05:37:32;;;;;;;4.43;4.03;;;3.00;99.90;;;;;;4941280;28;20471;-93
2020/12/25 05:40:00;;;;;;;4.03;3.60;;;3.00;99.90;;;;;;4955864;28;20829;-91
2020/12/25 05:42:25;;;;;;;4.37;3.97;;;3.00;99.90;;;;;;4939358;28;20470;-90
2020/12/25 05:44:51;;;;;;;3.83;3.53;;;3.00;99.90;;;;;;4940979;28;20459;-91
2020/12/25 05:47:20;;;;;;;5.87;4.43;;;3.10;99.90;;;;;;4940542;28;20309;-91
2020/12/25 05:49:46;;;;;;;6.00;4.20;;;3.00;99.90;;;;;;4941027;28;20199;-91
2020/12/25 05:52:15;;;;;;;4.23;3.83;;;3.00;99.90;;;;;;4939846;28;21101;-91
2020/12/25 05:54:44;;;;;;;4.73;3.90;;;2.90;99.90;;;;;;4955899;28;20558;-91
2020/12/25 05:57:13;;;;;;;4.60;4.20;;;3.00;99.90;;;;;;4939325;28;20460;-92
2020/12/25 05:59:44;;;;;;;4.50;4.10;;;3.00;99.90;;;;;;4938516;28;20795;-91
2020/12/25 06:02:14;;;;;;;5.47;4.30;;;3.00;99.90;;;;;;4952938;28;20603;-92
2020/12/25 06:04:41;;;;;;;4.23;3.83;;;3.00;99.90;;;;;;4938605;28;20455;-92
2020/12/25 06:07:10;;;;;;;5.27;4.77;;;3.00;99.90;;;;;;4939519;28;20467;-90
2020/12/25 06:09:44;;;;;;;4.77;4.37;;;3.00;99.90;;;;;;4941192;28;21211;-93
2020/12/25 06:12:14;;;;;;;4.73;4.10;;;3.00;99.90;;;;;;4939093;28;20481;-92
2020/12/25 06:14:40;;;;;;;4.70;4.30;;;3.00;99.90;;;;;;4958721;28;20458;-90
2020/12/25 06:17:19;;;;;;;6.00;4.77;;;3.00;99.90;;;;;;4955274;28;20455;-92
2020/12/25 06:19:55;;;;;;;4.87;4.40;;;3.00;99.90;;;;;;4937492;28;20207;-93
2020/12/25 06:22:47;;;;;;;5.27;4.30;;;3.10;99.90;;;;;;4951890;28;20588;-91
2020/12/25 06:25:15;;;;;;;5.23;4.73;;;3.10;99.90;;;;;;4936334;28;20888;-92
2020/12/25 06:27:55;;;;;;;5.73;5.00;;;3.10;99.90;;;;;;4938429;28;20447;-92
2020/12/25 06:30:24;;;;;;;5.70;4.97;;;3.10;99.90;;;;;;4939729;28;20439;-91
2020/12/25 06:32:53;;;;;;;5.73;5.23;;;3.10;99.90;;;;;;4936998;28;20564;-91
2020/12/25 06:35:47;;;;;;;6.37;5.40;;;3.10;99.90;;;;;;4954511;28;20497;-90
2020/12/25 06:38:21;;;;;;;4.90;4.40;;;3.00;99.90;;;;;;4935371;28;20451;-91
2020/12/25 06:40:47;;;;;;;5.07;4.57;;;3.00;99.90;;;;;;4959163;28;20855;-91
2020/12/25 06:43:15;;;;;;;5.53;5.00;;;3.00;99.90;;;;;;4952386;28;20871;-92
2020/12/25 06:45:42;;;;;;;5.60;5.10;;;3.00;99.90;;;;;;4936401;28;20456;-91
2020/12/25 06:48:16;;;;;;;6.23;5.17;;;3.00;99.90;;;;;;4940356;28;20458;-92
2020/12/25 06:50:59;;;;;;;8.07;5.20;;;3.10;99.90;;;;;;4937296;28;20815;-94
2020/12/25 06:53:34;;;;;;;6.00;4.70;;;3.10;99.90;;;;;;4940400;28;20444;-92
2020/12/25 06:56:17;;;;;;;9.00;7.87;;;3.10;99.90;;;;;;4935575;28;20481;-91
2020/12/25 06:58:46;;;;;;;7.80;6.43;;;3.10;99.90;;;;;;4937064;28;20458;-92
2020/12/25 07:01:14;;;;;;;5.60;5.10;;;3.00;99.90;;;;;;4937616;28;20459;-92
2020/12/25 07:03:40;;;;;;;7.33;6.17;;;3.10;99.90;;;;;;4938213;28;20482;-91
2020/12/25 07:06:08;;;;;;;7.20;5.90;;;3.00;99.90;;;;;;4953568;28;20473;-92
2020/12/25 07:08:48;;;;;;;6.83;6.13;;;3.00;99.90;;;;;;4935086;28;20825;-92
2020/12/25 07:11:16;;;;;;;6.93;5.67;;;2.90;99.90;;;;;;4954153;28;20447;-91
2020/12/25 07:13:42;;;;;;;7.87;7.17;;;3.00;99.90;;;;;;4939997;28;20568;-91
2020/12/25 07:16:08;;;;;;;5.30;4.43;;;2.90;99.90;;;;;;4937487;28;20811;-92
2020/12/25 07:18:34;;;;;;;6.00;4.87;;;2.90;99.90;;;;;;4938007;28;20188;-92
2020/12/25 07:21:01;;;;;;;5.00;4.50;;;2.90;99.90;;;;;;4938472;28;20445;-92
2020/12/25 07:23:27;;;;;;;7.40;6.70;;;2.90;99.90;;;;;;4939472;28;20498;-92
2020/12/25 07:25:58;;;;;;;6.33;5.73;;;2.80;99.90;;;;;;4935859;28;20457;-93
2020/12/25 07:28:24;;;;;;;6.20;5.60;;;2.80;99.90;;;;;;4955744;28;20542;-91
2020/12/25 07:30:52;;;;;;;5.37;4.87;;;2.80;99.90;;;;;;4937083;28;20868;-91
2020/12/25 07:33:18;;;;;;;6.20;5.60;;;2.70;99.90;;;;;;4937275;28;22377;-93
2020/12/25 07:35:43;;;;;;;5.03;4.53;;;2.70;99.90;;;;;;4936582;28;20451;-91
2020/12/25 07:38:12;;;;;;;5.00;4.50;;;2.70;99.90;;;;;;4939405;28;20295;-93
2020/12/25 07:40:39;;;;;;;5.53;4.93;;;2.60;99.90;;;;;;4938279;28;20220;-93
2020/12/25 07:43:05;;;;;;;5.33;4.83;;;2.60;99.90;;;;;;4938418;28;20489;-91
2020/12/25 07:45:34;;;;;;;5.37;4.70;;;2.50;99.90;;;;;;4942345;28;20835;-92
2020/12/25 07:48:05;;;;;;;5.57;4.63;;;2.50;99.90;;;;;;4935201;28;20204;-91
2020/12/25 07:50:36;;;;;;;4.53;4.03;;;2.50;99.90;;;;;;4943750;28;20473;-91
2020/12/25 07:53:09;;;;;;;5.33;4.17;;;2.50;99.90;;;;;;4935738;28;20464;-91
2020/12/25 07:55:35;;;;;;;4.70;4.13;;;2.40;99.90;;;;;;4952509;28;20450;-92
2020/12/25 07:58:02;;;;;;;5.60;5.00;;;2.40;99.90;;;;;;4937304;28;21116;-91
2020/12/25 08:00:28;;;;;;;4.50;4.10;;;2.50;99.90;;;;;;4935531;28;20964;-91
2020/12/25 08:02:54;;;;;;;4.43;4.03;;;2.50;99.90;;;;;;4937213;28;20504;-93
2020/12/25 08:05:20;;;;;;;7.10;4.03;;;2.40;99.90;;;;;;4942647;28;20195;-91
2020/12/25 08:07:46;;;;;;;3.83;3.40;;;2.40;99.90;;;;;;4946540;28;20443;-94
2020/12/25 08:10:16;;;;;;;4.67;4.10;;;2.40;99.90;;;;;;4945107;28;20497;-89
2020/12/25 08:12:49;;;;;;;6.23;5.70;;;2.40;99.90;;;;;;4941264;28;20458;-89
2020/12/25 08:15:16;;;;;;;5.53;5.00;;;2.40;99.90;;;;;;4944238;28;20477;-89
2020/12/25 08:17:44;;;;;;;6.67;5.67;;;2.40;99.90;;;;;;4943548;28;20949;-89
2020/12/25 08:20:10;;;;;;;7.83;5.50;;;2.40;99.90;;;;;;4942538;28;20458;-89
2020/12/25 08:22:36;;;;;;;6.03;5.30;;;2.50;99.90;;;;;;4943805;28;20491;-89
2020/12/25 08:25:02;;;;;;;5.40;4.77;;;2.50;99.90;;;;;;4944038;28;20703;-89
2020/12/25 08:27:32;;;;;;;6.77;5.10;;;2.60;99.90;;;;;;4943888;28;20439;-90
2020/12/25 08:30:03;;;;;;;6.43;5.27;;;2.60;99.90;;;;;;4942080;28;20468;-89
2020/12/25 08:32:30;;;;;;;4.80;4.30;;;2.70;99.90;;;;;;4943101;28;20444;-90
2020/12/25 08:35:11;;;;;;;6.27;4.73;;;2.70;99.90;;;;;;4938985;28;20852;-89
2020/12/25 08:37:36;;;;;;;5.37;4.77;;;2.80;99.90;;;;;;4939719;28;20834;-89
2020/12/25 08:40:15;;;;;;;5.70;5.10;;;2.90;99.90;;;;;;4938895;28;20463;-88
2020/12/25 08:42:41;;;;;;;6.13;5.23;;;2.80;99.90;;;;;;4925918;28;20238;-88
2020/12/25 08:45:08;;;;;;;5.87;5.20;;;2.90;99.90;;;;;;4958860;28;20443;-88
2020/12/25 08:47:35;;;;;;;7.23;5.53;;;3.00;99.90;;;;;;4959975;28;20463;-87
2020/12/25 08:50:01;;;;;;;7.70;5.60;;;2.90;99.90;;;;;;4927936;28;20470;-88
2020/12/25 08:52:28;;;;;;;7.33;6.00;;;2.90;99.90;;;;;;4942800;28;21038;-88
2020/12/25 08:54:59;;;;;;;5.13;4.57;;;3.00;99.90;;;;;;4940111;28;20223;-88
2020/12/25 08:57:25;;;;;;;6.77;6.07;;;3.00;99.90;;;;;;4942272;28;20445;-89
2020/12/25 09:00:20;;;;;;;6.80;5.30;;;3.00;99.90;;;;;;4944496;28;20457;-88
2020/12/25 09:02:58;;;;;;;6.93;5.60;;;3.00;99.90;;;;;;4923913;28;20481;-88
2020/12/25 09:05:24;;;;;;;7.00;6.10;;;3.00;99.90;;;;;;4940184;28;20478;-89
2020/12/25 09:07:50;;;;;;;7.97;5.80;;;3.00;99.90;;;;;;4941808;28;20444;-89
2020/12/25 09:10:16;;;;;;;6.73;5.90;;;3.00;99.90;;;;;;4936646;28;20447;-89
2020/12/25 09:12:42;;;;;;;5.73;5.17;;;3.00;99.90;;;;;;4956331;28;20497;-89
2020/12/25 09:15:08;;;;;;;7.37;5.93;;;3.00;99.90;;;;;;4940512;28;20545;-88
2020/12/25 09:17:34;;;;;;;7.20;6.00;;;3.10;99.90;;;;;;4959192;28;20200;-87
2020/12/25 09:19:59;;;;;;;9.77;6.63;;;3.00;99.90;;;;;;4937567;28;20454;-88
2020/12/25 09:22:25;;;;;;;7.17;6.40;;;3.00;99.90;;;;;;4939082;28;20484;-87
2020/12/25 09:24:51;;;;;;;8.20;6.50;;;2.90;99.90;;;;;;4939954;28;20237;-88
2020/12/25 09:27:16;;;;;;;7.37;6.27;;;2.90;99.90;;;;;;4942895;28;20197;-92
2020/12/25 09:29:44;;;;;;;7.97;6.77;;;2.90;99.90;;;;;;4945164;28;20621;-93
2020/12/25 09:32:10;;;;;;;9.50;6.80;;;2.80;99.90;;;;;;4943968;28;20240;-95
2020/12/25 09:34:35;;;;;;;10.33;6.37;;;2.80;99.90;;;;;;4952859;28;20495;-96
2020/12/25 09:37:01;;;;;;;8.80;7.00;;;2.80;99.90;;;;;;4946419;28;20201;-91
2020/12/25 09:39:27;;;;;;;8.80;7.77;;;2.80;99.90;;;;;;4939216;28;20285;-94
2020/12/25 09:41:52;;;;;;;9.63;8.10;;;3.00;99.90;;;;;;4943078;28;20919;-92
2020/12/25 09:44:27;;;;;;;11.83;8.40;;;3.00;99.90;;;;;;4940094;28;20244;-91
2020/12/25 09:46:53;;;;;;;10.47;8.37;;;3.10;99.90;;;;;;4939710;28;20220;-89
2020/12/25 09:49:18;;;;;;;12.10;8.80;;;3.20;99.90;;;;;;4939465;28;20450;-92
2020/12/25 09:51:44;;;;;;;9.93;7.70;;;3.30;99.90;;;;;;4945993;28;20230;-93
2020/12/25 09:54:09;;;;;;;13.17;8.47;;;3.30;99.90;;;;;;4946197;28;20750;-96
2020/12/25 09:56:35;;;;;;;10.30;8.10;;;3.30;99.90;;;;;;4946291;28;20198;-94
2020/12/25 09:59:01;;;;;;;10.30;8.80;;;3.40;99.90;;;;;;4943708;28;20194;-95
2020/12/25 10:01:27;;;;;;;11.83;9.33;;;3.40;99.90;;;;;;4944832;28;20191;-96
2020/12/25 10:03:52;;;;;;;10.10;7.70;;;3.40;99.90;;;;;;4946185;28;20683;-90
2020/12/25 10:06:19;;;;;;;9.23;7.70;;;3.40;99.90;;;;;;4941797;28;20443;-93
2020/12/25 10:08:45;;;;;;;9.30;7.40;;;3.40;99.90;;;;;;4943363;28;20364;-93
2020/12/25 10:11:11;;;;;;;10.70;7.00;;;3.50;99.90;;;;;;4947705;28;20808;-91
2020/12/25 10:13:36;;;;;;;11.70;7.03;;;3.50;99.90;;;;;;4942273;28;20489;-91
2020/12/25 10:16:02;;;;;;;11.40;8.17;;;3.40;99.90;;;;;;4945289;28;20709;-93
2020/12/25 10:18:30;;;;;;;10.30;8.13;;;3.30;99.90;;;;;;4950423;28;20194;-93
2020/12/25 10:23:37;;;;;;;11.40;7.73;;;3.40;99.90;;;;;;4955084;28;20207;-95
2020/12/25 10:26:02;;;;;;;11.40;7.80;;;3.40;99.90;;;;;;4953711;28;20427;-95
2020/12/25 10:28:31;;;;;;;9.40;7.70;;;3.40;99.90;;;;;;4954423;28;20218;-96
2020/12/25 10:30:57;;;;;;;11.20;7.33;;;3.40;99.90;;;;;;5152930;23;20354;-96
2020/12/25 10:33:24;;;;;;;8.30;6.93;;;3.50;99.90;;;;;;4985383;28;20446;-96
2020/12/25 10:35:59;;;;;;;8.53;6.23;;;3.40;99.90;;;;;;4979820;28;20441;-96
2020/12/25 10:41:11;;;;;;;7.90;6.50;;;3.40;99.90;;;;;;4981189;28;20458;-96
2020/12/25 10:43:39;;;;;;;9.13;7.27;;;3.40;99.90;;;;;;5125943;23;20529;-96
2020/12/25 10:46:14;;;;;;;8.83;6.50;;;3.50;99.90;;;;;;5002091;23;20239;-95
2020/12/25 10:48:45;;;;;;;8.57;6.90;;;3.60;99.90;;;;;;4952371;28;20471;-92
2020/12/25 10:51:11;;;;;;;9.70;6.80;;;3.60;99.90;;;;;;4950061;28;20560;-93
2020/12/25 10:53:36;;;;;;;13.57;8.30;;;3.70;99.90;;;;;;5266471;22;20517;-95
2020/12/25 10:56:40;;;;;;;17.47;9.00;;;3.90;99.90;;;;;;4940154;29;20229;-95
2020/12/25 10:59:17;;;;;;;8.47;5.87;;;4.20;99.90;;;;;;4939778;28;20436;-95
2020/12/25 11:01:47;;;;;;;6.20;5.60;;;4.50;99.90;;;;;;4933233;28;20518;-92
2020/12/25 11:04:13;;;;;;;6.10;5.37;;;4.60;99.90;;;;;;4925958;29;20946;-96
2020/12/25 11:06:40;;;;;;;9.30;6.03;;;4.20;99.90;;;;;;4923682;29;20494;-93
2020/12/25 11:09:07;;;;;;;9.10;6.40;;;3.90;99.90;;;;;;4927837;29;20456;-92
2020/12/25 11:11:39;;;;;;;8.43;5.27;;;3.80;99.90;;;;;;4919518;29;22168;-95
2020/12/25 11:14:05;;;;;;;6.90;5.40;;;3.80;99.90;;;;;;4921711;29;20460;-92
2020/12/25 11:16:36;;;;;;;8.77;6.90;;;3.80;99.90;;;;;;4920975;29;20464;-95
2020/12/25 11:19:08;;;;;;;7.93;6.43;;;3.80;99.90;;;;;;4938309;28;20461;-96
2020/12/25 11:21:35;;;;;;;7.87;5.60;;;3.90;99.90;;;;;;4932337;29;20457;-96
2020/12/25 11:24:05;;;;;;;7.20;6.23;;;3.90;99.90;;;;;;4973565;28;20443;-96
2020/12/25 11:26:35;;;;;;;7.60;6.30;;;4.00;99.90;;;;;;4948967;28;20504;-94
2020/12/25 11:29:03;;;;;;;7.50;6.00;;;4.00;99.90;;;;;;4945731;28;20435;-94
2020/12/25 11:31:29;;;;;;;8.30;6.20;;;4.00;99.90;;;;;;4918280;28;20479;-91
2020/12/25 11:33:55;;;;;;;10.37;6.60;;;4.00;99.90;;;;;;4916242;29;20993;-91
2020/12/25 11:36:26;;;;;;;7.20;5.83;;;4.10;99.90;;;;;;4937881;28;20581;-90
2020/12/25 11:38:53;;;;;;;6.83;5.93;;;4.10;99.90;;;;;;4921760;29;20443;-89
2020/12/25 11:41:21;;;;;;;11.87;6.77;;;4.10;99.90;;;;;;4926244;29;20468;-90
2020/12/25 11:43:47;;;;;;;5.97;5.20;;;4.20;99.90;;;;;;4920310;29;20496;-90
2020/12/25 11:46:15;;;;;;;8.07;5.37;;;4.20;99.90;;;;;;4926003;28;20454;-88
2020/12/25 11:48:43;;;;;;;6.30;5.60;;;4.20;99.90;;;;;;4922164;29;20862;-91
2020/12/25 11:51:15;;;;;;;6.50;4.93;;;4.40;99.90;;;;;;4908538;29;20464;-90
2020/12/25 11:53:40;;;;;;;15.43;11.33;;;4.50;99.90;;;;;;4947795;28;21156;-92
2020/12/25 11:56:06;;;;;;;35.23;20.53;;;4.30;99.90;;;;;;4918294;28;21200;-92
2020/12/25 11:58:31;;;;;;;10.73;8.77;;;4.20;99.90;;;;;;4919675;29;20634;-89
2020/12/25 12:00:58;;;;;;;12.83;7.30;;;4.00;99.90;;;;;;4916521;29;20209;-91
2020/12/25 12:03:26;;;;;;;7.77;5.23;;;3.90;99.90;;;;;;4923393;29;20222;-92
2020/12/25 12:05:52;;;;;;;7.53;6.07;;;3.80;99.90;;;;;;4936126;28;20838;-92
2020/12/25 12:08:18;;;;;;;6.53;5.00;;;3.60;99.90;;;;;;4921731;29;20455;-94
2020/12/25 12:10:44;;;;;;;8.27;6.23;;;3.50;99.90;;;;;;4923935;29;20447;-95
2020/12/25 12:13:10;;;;;;;6.40;5.10;;;3.50;99.90;;;;;;4919829;29;20463;-89
2020/12/25 12:15:40;;;;;;;7.70;5.83;;;3.60;99.90;;;;;;4918707;29;20198;-89
2020/12/25 12:18:06;;;;;;;8.80;6.33;;;3.50;99.90;;;;;;4924829;29;20492;-92
2020/12/25 12:20:33;;;;;;;7.20;5.53;;;3.40;99.90;;;;;;4951511;28;20463;-91
2020/12/25 12:22:59;;;;;;;9.63;8.00;;;3.50;99.90;;;;;;4930524;28;20485;-93
2020/12/25 12:25:25;;;;;;;10.63;6.97;;;3.40;99.90;;;;;;4926771;28;20549;-94
2020/12/25 12:27:51;;;;;;;6.33;5.70;;;3.40;99.90;;;;;;4929071;28;21680;-93
2020/12/25 12:30:17;;;;;;;9.27;7.00;;;3.40;99.90;;;;;;4931123;29;20440;-92
2020/12/25 12:32:43;;;;;;;7.97;6.03;;;3.50;99.90;;;;;;4923258;29;20311;-92
2020/12/25 12:35:21;;;;;;;6.40;5.50;;;3.50;99.90;;;;;;4929031;29;20291;-96
2020/12/25 12:37:46;;;;;;;5.93;5.33;;;3.60;99.90;;;;;;4926304;29;20320;-93
2020/12/25 12:40:14;;;;;;;5.77;5.13;;;3.60;99.90;;;;;;4952122;28;20581;-89
2020/12/25 12:42:39;;;;;;;7.20;5.40;;;3.60;99.90;;;;;;4917940;28;20230;-91
2020/12/25 12:45:06;;;;;;;6.60;5.43;;;3.60;99.90;;;;;;4916569;28;20463;-91
2020/12/25 12:47:32;;;;;;;5.93;5.33;;;3.60;99.90;;;;;;4918756;29;20212;-95
2020/12/25 12:49:58;;;;;;;6.83;5.57;;;3.60;99.90;;;;;;4924321;29;20447;-93
2020/12/25 12:52:24;;;;;;;7.43;5.77;;;3.50;99.90;;;;;;4925927;29;20467;-93
2020/12/25 12:54:49;;;;;;;6.33;4.93;;;3.50;99.90;;;;;;4940781;28;20247;-92
2020/12/25 12:57:15;;;;;;;7.47;4.83;;;3.40;99.90;;;;;;4928880;28;20195;-93
2020/12/25 12:59:40;;;;;;;6.70;4.33;;;3.40;99.90;;;;;;4912583;29;20196;-90
2020/12/25 13:02:06;;;;;;;7.00;5.10;;;3.40;99.90;;;;;;4915550;29;20238;-90